Time;durP1;ratioP1;P1;durP2;ratioP2;P2;SDS_P1;SDS_P2;PMS_P1;PMS_P2;Temp;Humidity;BMP_temperature;BMP_pressure;BME280_temperature;BME280_humidity;BME280_pressure;Samples;Min_cycle;Max_cycle;Signal;HPM_P1;HPM_P2
2022/08/21 00:00:28;;;;;;;3.33;1.20;;;;;;;;;;2071757;28;20398;-65
2022/08/21 00:01:47;;;;;;;4.78;0.93;;;;;;;;;;2074978;28;20025;-64
2022/08/21 00:03:07;;;;;;;2.92;0.93;;;;;;;;;;2073431;28;20599;-65
2022/08/21 00:04:26;;;;;;;4.60;0.98;;;;;;;;;;2072541;28;20065;-64
2022/08/21 00:05:46;;;;;;;1.73;0.80;;;;;;;;;;2074272;28;20025;-64
2022/08/21 00:07:05;;;;;;;3.47;0.98;;;;;;;;;;2076257;28;20026;-65
2022/08/21 00:08:24;;;;;;;6.95;1.13;;;;;;;;;;2072117;28;20030;-64
2022/08/21 00:09:44;;;;;;;1.50;0.85;;;;;;;;;;2072467;28;20069;-64
2022/08/21 00:11:03;;;;;;;3.45;1.00;;;;;;;;;;2073445;28;20026;-64
2022/08/21 00:12:22;;;;;;;4.05;1.10;;;;;;;;;;2075486;28;20026;-65
2022/08/21 00:13:41;;;;;;;3.20;1.00;;;;;;;;;;2072110;28;20061;-65
2022/08/21 00:15:00;;;;;;;4.55;1.33;;;;;;;;;;2073314;28;20125;-64
2022/08/21 00:16:19;;;;;;;4.40;1.13;;;;;;;;;;2075172;28;20385;-64
2022/08/21 00:17:38;;;;;;;3.90;1.38;;;;;;;;;;2073931;28;20113;-64
2022/08/21 00:18:57;;;;;;;4.43;0.90;;;;;;;;;;2074688;28;20029;-65
2022/08/21 00:20:16;;;;;;;3.80;1.05;;;;;;;;;;2074660;28;20022;-65
2022/08/21 00:21:36;;;;;;;3.28;1.00;;;;;;;;;;2075547;28;20030;-65
2022/08/21 00:22:54;;;;;;;2.15;1.00;;;;;;;;;;2074728;28;20042;-65
2022/08/21 00:24:13;;;;;;;4.03;1.15;;;;;;;;;;2073715;28;20034;-65
2022/08/21 00:25:32;;;;;;;3.75;1.05;;;;;;;;;;2075639;28;20038;-65
2022/08/21 00:26:52;;;;;;;3.00;1.00;;;;;;;;;;2073992;28;20038;-65
2022/08/21 00:28:11;;;;;;;3.35;1.52;;;;;;;;;;2073440;28;20112;-65
2022/08/21 00:29:30;;;;;;;2.63;0.80;;;;;;;;;;2072703;28;20148;-65
2022/08/21 00:30:49;;;;;;;2.80;1.10;;;;;;;;;;2072364;28;20029;-65
2022/08/21 00:32:08;;;;;;;5.18;1.00;;;;;;;;;;2074261;28;20042;-64
2022/08/21 00:33:27;;;;;;;4.78;1.48;;;;;;;;;;2073905;28;20030;-65
2022/08/21 00:34:46;;;;;;;3.17;0.88;;;;;;;;;;2074750;28;20029;-65
2022/08/21 00:36:05;;;;;;;8.00;1.27;;;;;;;;;;2073925;28;20025;-65
2022/08/21 00:37:25;;;;;;;7.45;1.13;;;;;;;;;;2075347;28;20030;-65
2022/08/21 00:38:44;;;;;;;2.85;0.98;;;;;;;;;;2073943;28;20038;-65
2022/08/21 00:40:03;;;;;;;3.67;1.10;;;;;;;;;;2072852;28;20033;-65
2022/08/21 00:41:23;;;;;;;3.65;1.00;;;;;;;;;;2075206;28;20109;-65
2022/08/21 00:42:42;;;;;;;5.40;1.58;;;;;;;;;;2075364;28;20037;-65
2022/08/21 00:44:01;;;;;;;4.55;1.00;;;;;;;;;;2074623;28;20025;-65
2022/08/21 00:45:23;;;;;;;3.65;1.02;;;;;;;;;;2072266;28;20124;-65
2022/08/21 00:46:43;;;;;;;5.07;1.42;;;;;;;;;;2074982;28;20113;-64
2022/08/21 00:48:02;;;;;;;3.78;1.50;;;;;;;;;;2074792;28;20033;-64
2022/08/21 00:49:21;;;;;;;5.38;1.13;;;;;;;;;;2073803;28;20042;-65
2022/08/21 00:50:43;;;;;;;6.65;1.48;;;;;;;;;;2073954;28;20041;-64
2022/08/21 00:52:03;;;;;;;3.00;1.17;;;;;;;;;;2074416;28;20030;-64
2022/08/21 00:53:22;;;;;;;3.22;1.20;;;;;;;;;;2075314;28;20034;-64
2022/08/21 00:54:41;;;;;;;4.82;1.10;;;;;;;;;;2076280;28;20495;-65
2022/08/21 00:56:03;;;;;;;7.15;1.63;;;;;;;;;;2075349;28;20033;-65
2022/08/21 00:57:30;;;;;;;8.27;1.15;;;;;;;;;;2077607;28;20038;-65
2022/08/21 00:58:49;;;;;;;3.42;1.67;;;;;;;;;;2074053;28;20025;-65
2022/08/21 01:00:10;;;;;;;6.28;1.08;;;;;;;;;;2073563;28;20030;-65
2022/08/21 01:01:29;;;;;;;4.68;1.00;;;;;;;;;;2076692;28;20030;-64
2022/08/21 01:02:48;;;;;;;4.45;1.15;;;;;;;;;;2076208;28;20108;-65
2022/08/21 01:04:07;;;;;;;5.82;1.23;;;;;;;;;;2076250;28;20037;-65
2022/08/21 01:05:27;;;;;;;3.28;1.02;;;;;;;;;;2077974;28;20033;-65
2022/08/21 01:06:46;;;;;;;5.55;1.25;;;;;;;;;;2077369;28;20038;-65
2022/08/21 01:08:05;;;;;;;5.97;1.17;;;;;;;;;;2075890;28;20034;-65
2022/08/21 01:09:25;;;;;;;7.40;1.35;;;;;;;;;;2072656;28;20037;-65
2022/08/21 01:10:44;;;;;;;5.18;1.17;;;;;;;;;;2076016;28;20542;-65
2022/08/21 01:12:03;;;;;;;5.53;1.20;;;;;;;;;;2076370;28;20030;-65
2022/08/21 01:13:24;;;;;;;6.80;1.15;;;;;;;;;;2075658;28;20026;-65
2022/08/21 01:14:43;;;;;;;3.58;1.25;;;;;;;;;;2074014;28;20026;-65
2022/08/21 01:16:03;;;;;;;6.53;1.30;;;;;;;;;;2071218;28;20494;-65
2022/08/21 01:17:22;;;;;;;10.55;1.23;;;;;;;;;;2076806;28;20025;-65
2022/08/21 01:18:41;;;;;;;5.60;1.13;;;;;;;;;;2077352;28;20029;-65
2022/08/21 01:20:01;;;;;;;5.10;1.17;;;;;;;;;;2075930;28;21233;-65
2022/08/21 01:21:22;;;;;;;7.90;1.33;;;;;;;;;;2075388;28;20022;-65
2022/08/21 01:22:41;;;;;;;3.90;1.70;;;;;;;;;;2075463;28;20029;-65
2022/08/21 01:24:00;;;;;;;4.50;1.15;;;;;;;;;;2074790;28;20022;-65
2022/08/21 01:25:19;;;;;;;3.92;1.30;;;;;;;;;;2076330;28;20033;-65
2022/08/21 01:26:39;;;;;;;5.93;1.40;;;;;;;;;;2076658;28;20026;-65
2022/08/21 01:28:01;;;;;;;5.95;1.23;;;;;;;;;;2076931;28;20021;-65
2022/08/21 01:29:26;;;;;;;5.88;1.95;;;;;;;;;;2075413;28;20046;-65
2022/08/21 01:30:45;;;;;;;3.38;1.20;;;;;;;;;;2073411;28;20459;-65
2022/08/21 01:32:06;;;;;;;2.72;1.33;;;;;;;;;;2073596;28;20034;-65
2022/08/21 01:33:25;;;;;;;5.35;1.50;;;;;;;;;;2074394;28;20022;-65
2022/08/21 01:34:45;;;;;;;2.88;1.35;;;;;;;;;;2074558;28;20037;-65
2022/08/21 01:36:04;;;;;;;6.70;1.45;;;;;;;;;;2075080;28;20429;-65
2022/08/21 01:37:23;;;;;;;5.80;1.30;;;;;;;;;;2074934;28;20022;-65
2022/08/21 01:38:42;;;;;;;4.32;0.95;;;;;;;;;;2075821;28;20077;-65
2022/08/21 01:40:01;;;;;;;4.93;1.83;;;;;;;;;;2075227;28;20117;-65
2022/08/21 01:41:20;;;;;;;5.63;1.67;;;;;;;;;;2077024;28;20450;-65
2022/08/21 01:42:39;;;;;;;6.90;1.63;;;;;;;;;;2075827;28;20026;-65
2022/08/21 01:43:58;;;;;;;2.95;0.98;;;;;;;;;;2074367;28;20025;-65
2022/08/21 01:45:17;;;;;;;5.43;1.65;;;;;;;;;;2071533;28;20033;-65
2022/08/21 01:46:36;;;;;;;5.55;1.33;;;;;;;;;;2076662;28;21470;-65
2022/08/21 01:47:55;;;;;;;4.13;1.05;;;;;;;;;;2075354;28;20049;-65
2022/08/21 01:49:15;;;;;;;4.68;1.50;;;;;;;;;;2076425;28;20054;-65
2022/08/21 01:50:34;;;;;;;3.42;1.40;;;;;;;;;;2075375;28;20029;-65
2022/08/21 01:51:56;;;;;;;4.15;1.02;;;;;;;;;;2075545;28;20058;-64
2022/08/21 01:53:15;;;;;;;5.47;1.27;;;;;;;;;;2075303;28;20033;-65
2022/08/21 01:54:34;;;;;;;5.25;1.70;;;;;;;;;;2073718;28;20021;-65
2022/08/21 01:55:53;;;;;;;4.40;1.40;;;;;;;;;;2076427;28;20029;-65
2022/08/21 01:57:13;;;;;;;4.85;1.00;;;;;;;;;;2076321;28;20498;-65
2022/08/21 01:58:33;;;;;;;3.00;1.15;;;;;;;;;;2075900;28;20034;-65
2022/08/21 01:59:52;;;;;;;7.88;1.23;;;;;;;;;;2073024;28;20038;-65
2022/08/21 02:01:11;;;;;;;3.65;1.55;;;;;;;;;;2074742;28;20026;-65
2022/08/21 02:02:30;;;;;;;4.75;1.17;;;;;;;;;;2072531;28;20500;-65
2022/08/21 02:03:49;;;;;;;7.47;1.52;;;;;;;;;;2075961;28;20034;-65
2022/08/21 02:05:08;;;;;;;4.53;1.38;;;;;;;;;;2073927;28;20406;-65
2022/08/21 02:06:28;;;;;;;3.60;1.27;;;;;;;;;;2073733;28;20029;-65
2022/08/21 02:07:50;;;;;;;4.72;1.52;;;;;;;;;;2076250;28;20033;-65
2022/08/21 02:09:10;;;;;;;2.40;1.00;;;;;;;;;;2075531;28;20481;-65
2022/08/21 02:10:30;;;;;;;3.38;1.15;;;;;;;;;;2074154;28;20125;-65
2022/08/21 02:11:49;;;;;;;4.75;1.23;;;;;;;;;;2076215;28;20029;-65
2022/08/21 02:13:08;;;;;;;3.83;1.48;;;;;;;;;;2074465;28;20510;-65
2022/08/21 02:14:27;;;;;;;2.17;1.13;;;;;;;;;;2073100;28;20426;-65
2022/08/21 02:15:47;;;;;;;4.72;1.58;;;;;;;;;;2070085;28;20093;-65
2022/08/21 02:17:06;;;;;;;6.40;1.10;;;;;;;;;;2074348;28;20030;-65
2022/08/21 02:18:25;;;;;;;6.88;1.75;;;;;;;;;;2075945;28;20038;-65
2022/08/21 02:19:43;;;;;;;4.60;1.27;;;;;;;;;;2074072;28;20037;-65
2022/08/21 02:21:03;;;;;;;6.68;1.55;;;;;;;;;;2075407;28;20137;-65
2022/08/21 02:22:22;;;;;;;3.97;1.48;;;;;;;;;;2076673;28;20042;-65
2022/08/21 02:23:41;;;;;;;2.40;1.05;;;;;;;;;;2077250;28;20037;-65
2022/08/21 02:24:59;;;;;;;6.43;1.48;;;;;;;;;;2074810;28;20061;-65
2022/08/21 02:26:18;;;;;;;5.60;1.70;;;;;;;;;;2072908;28;20029;-65
2022/08/21 02:27:39;;;;;;;5.50;1.65;;;;;;;;;;2071873;28;20038;-65
2022/08/21 02:28:58;;;;;;;7.03;1.33;;;;;;;;;;2076209;28;20025;-65
2022/08/21 02:30:25;;;;;;;7.57;1.33;;;;;;;;;;2070892;28;20026;-65
2022/08/21 02:31:44;;;;;;;5.70;1.42;;;;;;;;;;2075578;28;20026;-65
2022/08/21 02:33:04;;;;;;;6.32;1.27;;;;;;;;;;2076011;28;20382;-65
2022/08/21 02:34:23;;;;;;;4.13;1.40;;;;;;;;;;2076550;28;20034;-65
2022/08/21 02:35:42;;;;;;;4.07;1.30;;;;;;;;;;2074585;28;20037;-65
2022/08/21 02:37:01;;;;;;;2.05;0.85;;;;;;;;;;2074671;28;20034;-65
2022/08/21 02:38:25;;;;;;;7.50;1.70;;;;;;;;;;2076337;28;20398;-65
2022/08/21 02:39:44;;;;;;;5.45;1.17;;;;;;;;;;2075571;28;20022;-65
2022/08/21 02:41:04;;;;;;;6.78;1.38;;;;;;;;;;2073818;28;20061;-65
2022/08/21 02:42:23;;;;;;;9.73;2.05;;;;;;;;;;2075857;28;20030;-65
2022/08/21 02:43:43;;;;;;;7.93;1.30;;;;;;;;;;2070032;28;20030;-65
2022/08/21 02:45:02;;;;;;;6.20;1.50;;;;;;;;;;2070482;28;20092;-65
2022/08/21 02:46:21;;;;;;;5.28;1.48;;;;;;;;;;2075641;28;20037;-65
2022/08/21 02:47:46;;;;;;;7.03;1.30;;;;;;;;;;2075977;28;20148;-65
2022/08/21 02:49:05;;;;;;;5.80;1.30;;;;;;;;;;2076010;28;20109;-65
2022/08/21 02:50:29;;;;;;;3.60;1.20;;;;;;;;;;2074706;28;20619;-65
2022/08/21 02:51:48;;;;;;;5.75;1.35;;;;;;;;;;2075954;28;20045;-65
2022/08/21 02:53:08;;;;;;;6.53;1.52;;;;;;;;;;2076475;28;20390;-65
2022/08/21 02:56:45;;;;;;;6.82;1.70;;;;;;;;;;2062231;28;20050;-64
2022/08/21 02:58:05;;;;;;;4.63;1.40;;;;;;;;;;2062557;28;20533;-62
2022/08/21 02:59:24;;;;;;;5.10;1.42;;;;;;;;;;2063697;28;20030;-62
2022/08/21 03:00:43;;;;;;;5.68;1.40;;;;;;;;;;2060029;28;20443;-61
2022/08/21 03:02:02;;;;;;;5.78;1.88;;;;;;;;;;2064626;28;20062;-62
2022/08/21 03:03:21;;;;;;;6.72;1.35;;;;;;;;;;2064497;28;20038;-61
2022/08/21 03:04:40;;;;;;;5.72;1.35;;;;;;;;;;2064221;28;20030;-63
2022/08/21 03:05:59;;;;;;;4.70;1.17;;;;;;;;;;2062315;28;20033;-63
2022/08/21 03:07:18;;;;;;;9.43;1.77;;;;;;;;;;2063960;28;20038;-63
2022/08/21 03:08:37;;;;;;;6.85;1.75;;;;;;;;;;2063761;28;20494;-63
2022/08/21 03:09:57;;;;;;;9.07;1.55;;;;;;;;;;2062389;28;20038;-64
2022/08/21 03:11:16;;;;;;;7.35;1.45;;;;;;;;;;2063822;28;20038;-61
2022/08/21 03:12:37;;;;;;;5.30;1.30;;;;;;;;;;2063418;28;20398;-61
2022/08/21 03:13:56;;;;;;;7.03;1.70;;;;;;;;;;2063454;28;20516;-62
2022/08/21 03:15:17;;;;;;;5.38;1.55;;;;;;;;;;2062247;28;20034;-62
2022/08/21 03:16:36;;;;;;;5.90;1.45;;;;;;;;;;2063389;28;20046;-62
2022/08/21 03:17:55;;;;;;;9.20;1.42;;;;;;;;;;2063903;28;20031;-61
2022/08/21 03:19:14;;;;;;;4.65;1.45;;;;;;;;;;2064112;28;20030;-61
2022/08/21 03:20:33;;;;;;;8.30;2.03;;;;;;;;;;2063199;28;20383;-61
2022/08/21 03:21:52;;;;;;;6.43;1.65;;;;;;;;;;2064109;28;20030;-61
2022/08/21 03:23:11;;;;;;;2.70;1.10;;;;;;;;;;2063401;28;20112;-62
2022/08/21 03:24:30;;;;;;;3.72;1.50;;;;;;;;;;2064097;28;20034;-61
2022/08/21 03:25:50;;;;;;;4.90;1.58;;;;;;;;;;2062092;28;20433;-62
2022/08/21 03:27:10;;;;;;;5.10;1.60;;;;;;;;;;2064271;28;20038;-62
2022/08/21 03:28:28;;;;;;;2.90;1.15;;;;;;;;;;2064344;28;20442;-61
2022/08/21 03:29:47;;;;;;;7.55;1.60;;;;;;;;;;2062859;28;20034;-64
2022/08/21 03:31:06;;;;;;;5.95;1.63;;;;;;;;;;2063425;28;20486;-62
2022/08/21 03:32:26;;;;;;;4.97;1.60;;;;;;;;;;2062758;28;20159;-62
2022/08/21 03:33:44;;;;;;;6.35;1.77;;;;;;;;;;2064061;28;20057;-61
2022/08/21 03:35:04;;;;;;;9.80;1.75;;;;;;;;;;2062722;28;20022;-61
2022/08/21 03:36:23;;;;;;;7.93;1.90;;;;;;;;;;2063475;28;20018;-62
2022/08/21 03:37:41;;;;;;;3.65;1.48;;;;;;;;;;2064517;28;20030;-61
2022/08/21 03:39:00;;;;;;;4.30;1.30;;;;;;;;;;2063382;28;20034;-61
2022/08/21 03:40:20;;;;;;;5.80;1.30;;;;;;;;;;2063802;28;20034;-63
2022/08/21 03:41:39;;;;;;;5.10;1.80;;;;;;;;;;2061824;28;20482;-61
2022/08/21 03:42:58;;;;;;;5.65;1.33;;;;;;;;;;2063023;28;20034;-62
2022/08/21 03:44:17;;;;;;;2.35;1.48;;;;;;;;;;2062519;28;20545;-62
2022/08/21 03:45:37;;;;;;;4.38;1.40;;;;;;;;;;2062624;28;20030;-61
2022/08/21 03:46:57;;;;;;;4.15;1.60;;;;;;;;;;2063301;28;20030;-61
2022/08/21 03:48:15;;;;;;;5.53;1.40;;;;;;;;;;2063071;28;20057;-61
2022/08/21 03:49:35;;;;;;;4.57;1.92;;;;;;;;;;2064298;28;20038;-61
2022/08/21 03:50:54;;;;;;;8.98;1.50;;;;;;;;;;2064073;28;20108;-61
2022/08/21 03:52:12;;;;;;;5.68;2.08;;;;;;;;;;2063506;28;20117;-61
2022/08/21 03:53:32;;;;;;;6.47;1.58;;;;;;;;;;2063679;28;20026;-61
2022/08/21 03:54:51;;;;;;;4.28;1.48;;;;;;;;;;2062685;28;20026;-61
2022/08/21 03:56:10;;;;;;;4.18;1.48;;;;;;;;;;2055135;28;20039;-61
2022/08/21 03:57:28;;;;;;;3.47;1.98;;;;;;;;;;2055988;28;20043;-61
2022/08/21 03:58:47;;;;;;;4.30;1.48;;;;;;;;;;2055141;28;20051;-61
2022/08/21 04:00:09;;;;;;;3.28;1.05;;;;;;;;;;2054078;28;20756;-62
2022/08/21 04:01:29;;;;;;;4.70;1.70;;;;;;;;;;2055170;28;20066;-63
2022/08/21 04:02:48;;;;;;;4.40;1.30;;;;;;;;;;2060703;28;20395;-63
2022/08/21 04:04:07;;;;;;;5.57;1.73;;;;;;;;;;2058587;28;20031;-63
2022/08/21 04:05:29;;;;;;;3.83;1.38;;;;;;;;;;2053160;28;20035;-64
2022/08/21 04:06:49;;;;;;;3.78;1.40;;;;;;;;;;2053491;28;20023;-63
2022/08/21 04:08:08;;;;;;;6.88;1.58;;;;;;;;;;2053790;28;20031;-61
2022/08/21 04:09:27;;;;;;;5.95;1.67;;;;;;;;;;2055405;28;20047;-61
2022/08/21 04:10:47;;;;;;;5.38;1.40;;;;;;;;;;2055924;28;20023;-63
2022/08/21 04:12:06;;;;;;;3.78;1.30;;;;;;;;;;2054533;28;20042;-63
2022/08/21 04:13:27;;;;;;;7.68;1.50;;;;;;;;;;2055706;28;20479;-64
2022/08/21 04:14:46;;;;;;;8.98;2.10;;;;;;;;;;2054723;28;20027;-63
2022/08/21 04:16:05;;;;;;;6.22;1.75;;;;;;;;;;2054486;28;20035;-63
2022/08/21 04:17:24;;;;;;;7.03;1.75;;;;;;;;;;2053396;28;20031;-63
2022/08/21 04:18:43;;;;;;;8.27;1.80;;;;;;;;;;2054933;28;20110;-62
2022/08/21 04:20:02;;;;;;;6.82;1.77;;;;;;;;;;2055370;28;20023;-62
2022/08/21 04:21:21;;;;;;;4.05;1.58;;;;;;;;;;2056283;28;20030;-61
2022/08/21 04:22:41;;;;;;;5.88;2.00;;;;;;;;;;2054428;28;20035;-62
2022/08/21 04:23:59;;;;;;;8.52;1.70;;;;;;;;;;2055647;28;20027;-61
2022/08/21 04:25:20;;;;;;;5.57;1.85;;;;;;;;;;2055343;28;20027;-62
2022/08/21 04:26:39;;;;;;;5.68;1.80;;;;;;;;;;2054320;28;20158;-62
2022/08/21 04:27:58;;;;;;;5.55;1.55;;;;;;;;;;2054196;28;20391;-61
2022/08/21 04:29:16;;;;;;;4.97;1.30;;;;;;;;;;2056395;28;20019;-62
2022/08/21 04:30:36;;;;;;;4.57;2.15;;;;;;;;;;2055985;28;20027;-61
2022/08/21 04:31:55;;;;;;;4.70;1.50;;;;;;;;;;2056807;28;20035;-62
2022/08/21 04:33:14;;;;;;;9.20;1.52;;;;;;;;;;2057817;28;20034;-62
2022/08/21 04:34:33;;;;;;;3.83;1.50;;;;;;;;;;2057097;28;20039;-62
2022/08/21 04:35:52;;;;;;;5.22;1.52;;;;;;;;;;2054228;28;20031;-61
2022/08/21 04:37:11;;;;;;;6.95;1.70;;;;;;;;;;2057460;28;20035;-61
2022/08/21 04:38:31;;;;;;;4.57;1.85;;;;;;;;;;2057642;28;20066;-61
2022/08/21 04:39:50;;;;;;;4.97;2.22;;;;;;;;;;2056616;28;20023;-61
2022/08/21 04:41:09;;;;;;;6.80;1.63;;;;;;;;;;2057585;28;20344;-61
2022/08/21 04:42:28;;;;;;;6.43;1.50;;;;;;;;;;2055978;28;20109;-61
2022/08/21 04:43:47;;;;;;;3.15;1.35;;;;;;;;;;2057537;28;20522;-61
2022/08/21 04:45:06;;;;;;;4.65;1.48;;;;;;;;;;2055906;28;20042;-62
2022/08/21 04:46:25;;;;;;;4.68;1.60;;;;;;;;;;2056139;28;20046;-62
2022/08/21 04:47:44;;;;;;;9.30;2.08;;;;;;;;;;2057165;28;20031;-61
2022/08/21 04:49:02;;;;;;;7.07;2.00;;;;;;;;;;2057599;28;20054;-61
2022/08/21 04:50:24;;;;;;;4.40;1.65;;;;;;;;;;2056782;28;20091;-61
2022/08/21 04:51:43;;;;;;;9.07;2.47;;;;;;;;;;2055103;28;20051;-62
2022/08/21 04:53:04;;;;;;;4.55;1.40;;;;;;;;;;2056547;28;20119;-62
2022/08/21 04:54:22;;;;;;;10.13;1.95;;;;;;;;;;2056195;28;20031;-61
2022/08/21 04:55:42;;;;;;;5.68;1.80;;;;;;;;;;2056637;28;20066;-61
2022/08/21 04:57:05;;;;;;;6.55;1.67;;;;;;;;;;2057345;28;20043;-61
2022/08/21 04:58:24;;;;;;;8.93;2.10;;;;;;;;;;2057042;28;20063;-61
2022/08/21 04:59:49;;;;;;;5.45;1.75;;;;;;;;;;2055614;28;20026;-61
2022/08/21 05:01:11;;;;;;;6.53;1.63;;;;;;;;;;2055976;28;20064;-61
2022/08/21 05:02:32;;;;;;;5.80;1.65;;;;;;;;;;2056141;28;20510;-61
2022/08/21 05:03:53;;;;;;;5.60;1.45;;;;;;;;;;2056588;28;20046;-61
2022/08/21 05:05:13;;;;;;;8.50;1.75;;;;;;;;;;2056031;28;20038;-61
2022/08/21 05:06:35;;;;;;;6.93;1.63;;;;;;;;;;2056863;28;20026;-61
2022/08/21 05:07:55;;;;;;;6.38;2.30;;;;;;;;;;2056382;28;20035;-61
2022/08/21 05:09:16;;;;;;;6.53;1.77;;;;;;;;;;2056482;28;20039;-61
2022/08/21 05:10:35;;;;;;;8.45;1.88;;;;;;;;;;2056551;28;20118;-62
2022/08/21 05:11:54;;;;;;;8.32;2.08;;;;;;;;;;2056887;28;20031;-61
2022/08/21 05:13:13;;;;;;;8.00;2.20;;;;;;;;;;2055586;28;20383;-62
2022/08/21 05:14:32;;;;;;;9.68;1.75;;;;;;;;;;2056338;28;20035;-61
2022/08/21 05:15:51;;;;;;;7.18;2.10;;;;;;;;;;2056096;28;20022;-61
2022/08/21 05:17:10;;;;;;;6.03;1.48;;;;;;;;;;2055367;28;20027;-61
2022/08/21 05:18:29;;;;;;;9.90;2.17;;;;;;;;;;2056400;28;20479;-61
2022/08/21 05:19:48;;;;;;;5.72;1.80;;;;;;;;;;2056945;28;20023;-61
2022/08/21 05:21:08;;;;;;;4.70;1.85;;;;;;;;;;2057239;28;20035;-62
2022/08/21 05:22:27;;;;;;;9.90;2.28;;;;;;;;;;2055561;28;20035;-62
2022/08/21 05:23:46;;;;;;;9.38;2.03;;;;;;;;;;2054925;28;20483;-61
2022/08/21 05:25:06;;;;;;;9.88;2.20;;;;;;;;;;2055661;28;20554;-61
2022/08/21 05:26:25;;;;;;;9.38;1.80;;;;;;;;;;2054273;28;20145;-61
2022/08/21 05:27:44;;;;;;;6.40;1.92;;;;;;;;;;2056749;28;20031;-61
2022/08/21 05:29:03;;;;;;;8.63;2.20;;;;;;;;;;2056097;28;20122;-61
2022/08/21 05:30:22;;;;;;;4.60;1.88;;;;;;;;;;2055644;28;20042;-61
2022/08/21 05:31:41;;;;;;;6.60;1.65;;;;;;;;;;2056437;28;20035;-62
2022/08/21 05:33:01;;;;;;;5.55;1.80;;;;;;;;;;2057198;28;20444;-62
2022/08/21 05:34:21;;;;;;;5.45;1.98;;;;;;;;;;2056746;28;20047;-63
2022/08/21 05:35:40;;;;;;;6.60;1.90;;;;;;;;;;2055051;28;20479;-62
2022/08/21 05:36:59;;;;;;;4.43;1.45;;;;;;;;;;2056575;28;20484;-62
2022/08/21 05:38:18;;;;;;;8.90;1.65;;;;;;;;;;2055378;28;20023;-61
2022/08/21 05:39:37;;;;;;;8.68;1.90;;;;;;;;;;2055490;28;20039;-62
2022/08/21 05:40:56;;;;;;;9.73;2.03;;;;;;;;;;2057115;28;20530;-61
2022/08/21 05:42:15;;;;;;;7.13;1.80;;;;;;;;;;2055380;28;20043;-62
2022/08/21 05:43:36;;;;;;;7.95;2.00;;;;;;;;;;2055762;28;20063;-61
2022/08/21 05:44:54;;;;;;;8.02;1.90;;;;;;;;;;2056774;28;20062;-62
2022/08/21 05:46:13;;;;;;;7.93;1.95;;;;;;;;;;2056495;28;20034;-61
2022/08/21 05:47:32;;;;;;;8.57;1.80;;;;;;;;;;2056478;28;20043;-62
2022/08/21 05:48:51;;;;;;;5.25;1.88;;;;;;;;;;2055356;28;20496;-62
2022/08/21 05:50:11;;;;;;;12.20;1.95;;;;;;;;;;2056404;28;20038;-62
2022/08/21 05:51:29;;;;;;;7.20;1.90;;;;;;;;;;2054715;28;20752;-62
2022/08/21 05:52:48;;;;;;;6.35;1.70;;;;;;;;;;2056534;28;20027;-62
2022/08/21 05:54:08;;;;;;;9.07;1.60;;;;;;;;;;2055418;28;20027;-62
2022/08/21 05:55:27;;;;;;;10.05;1.90;;;;;;;;;;2056672;28;20513;-62
2022/08/21 05:56:46;;;;;;;3.55;1.75;;;;;;;;;;2056371;28;20035;-62
2022/08/21 05:58:05;;;;;;;7.25;2.17;;;;;;;;;;2055935;28;20035;-62
2022/08/21 05:59:24;;;;;;;11.90;2.00;;;;;;;;;;2055279;28;20059;-62
2022/08/21 06:00:43;;;;;;;7.45;1.80;;;;;;;;;;2054311;28;20541;-62
2022/08/21 06:02:02;;;;;;;8.18;1.95;;;;;;;;;;2055032;28;20597;-62
2022/08/21 06:03:30;;;;;;;5.88;1.67;;;;;;;;;;2055898;28;20031;-62
2022/08/21 06:04:49;;;;;;;6.57;1.92;;;;;;;;;;2055439;28;20542;-63
2022/08/21 06:06:09;;;;;;;6.20;2.58;;;;;;;;;;2056206;28;20428;-63
2022/08/21 06:07:28;;;;;;;5.85;2.20;;;;;;;;;;2055085;28;20466;-62
2022/08/21 06:08:47;;;;;;;7.97;1.90;;;;;;;;;;2056069;28;20383;-62
2022/08/21 06:10:06;;;;;;;5.30;1.92;;;;;;;;;;2055445;28;20066;-63
2022/08/21 06:11:25;;;;;;;4.70;1.40;;;;;;;;;;2056490;28;20058;-63
2022/08/21 06:12:44;;;;;;;11.85;2.17;;;;;;;;;;2056872;28;20014;-62
2022/08/21 06:14:06;;;;;;;10.40;2.05;;;;;;;;;;2055972;28;20034;-62
2022/08/21 06:15:25;;;;;;;2.40;1.40;;;;;;;;;;2054338;28;20150;-62
2022/08/21 06:16:44;;;;;;;6.88;1.90;;;;;;;;;;2059706;28;20030;-63
2022/08/21 06:18:02;;;;;;;5.35;1.95;;;;;;;;;;2059612;28;20023;-62
2022/08/21 06:19:21;;;;;;;9.27;1.85;;;;;;;;;;2055936;28;20043;-62
2022/08/21 06:20:40;;;;;;;10.52;2.95;;;;;;;;;;2053586;28;20031;-62
2022/08/21 06:21:59;;;;;;;8.73;2.20;;;;;;;;;;2053112;28;20038;-63
2022/08/21 06:23:18;;;;;;;7.72;2.00;;;;;;;;;;2055465;28;20411;-63
2022/08/21 06:24:37;;;;;;;3.85;1.77;;;;;;;;;;2054906;28;20039;-63
2022/08/21 06:25:56;;;;;;;9.50;2.30;;;;;;;;;;2056583;28;20601;-63
2022/08/21 06:27:17;;;;;;;10.05;2.00;;;;;;;;;;2070358;28;20034;-62
2022/08/21 06:28:37;;;;;;;7.43;2.08;;;;;;;;;;2061285;28;20050;-62
2022/08/21 06:29:57;;;;;;;8.00;1.80;;;;;;;;;;2055145;28;20459;-64
2022/08/21 06:31:18;;;;;;;8.73;1.98;;;;;;;;;;2057407;28;20395;-63
2022/08/21 06:32:37;;;;;;;5.50;2.05;;;;;;;;;;2055421;28;20042;-64
2022/08/21 06:33:57;;;;;;;7.35;1.80;;;;;;;;;;2052220;28;20023;-63
2022/08/21 06:35:16;;;;;;;9.57;2.45;;;;;;;;;;2054286;28;20062;-63
2022/08/21 06:36:35;;;;;;;9.10;2.30;;;;;;;;;;2056451;28;20030;-63
2022/08/21 06:37:54;;;;;;;8.13;2.10;;;;;;;;;;2055725;28;20027;-63
2022/08/21 06:39:13;;;;;;;7.65;2.58;;;;;;;;;;2054463;28;20035;-63
2022/08/21 06:40:32;;;;;;;10.40;1.92;;;;;;;;;;2055721;28;20491;-63
2022/08/21 06:41:51;;;;;;;6.25;2.08;;;;;;;;;;2056299;28;20125;-63
2022/08/21 06:43:12;;;;;;;5.47;1.92;;;;;;;;;;2055018;28;20121;-63
2022/08/21 06:44:31;;;;;;;7.38;1.92;;;;;;;;;;2055483;28;20031;-63
2022/08/21 06:45:50;;;;;;;8.13;1.90;;;;;;;;;;2054367;28;20035;-63
2022/08/21 06:47:09;;;;;;;7.85;1.98;;;;;;;;;;2056112;28;20038;-63
2022/08/21 06:48:30;;;;;;;12.02;2.03;;;;;;;;;;2056806;28;20098;-63
2022/08/21 06:49:49;;;;;;;5.65;1.80;;;;;;;;;;2055554;28;20030;-62
2022/08/21 06:51:08;;;;;;;9.00;2.40;;;;;;;;;;2056250;28;20043;-63
2022/08/21 06:52:27;;;;;;;6.20;1.90;;;;;;;;;;2054324;28;20063;-63
2022/08/21 06:53:46;;;;;;;8.90;2.22;;;;;;;;;;2055779;28;20043;-63
2022/08/21 06:55:06;;;;;;;12.57;2.08;;;;;;;;;;2055452;28;20054;-63
2022/08/21 06:56:27;;;;;;;9.77;2.63;;;;;;;;;;2053684;28;20051;-63
2022/08/21 06:57:46;;;;;;;10.25;2.10;;;;;;;;;;2053778;28;20035;-63
2022/08/21 06:59:05;;;;;;;8.02;2.83;;;;;;;;;;2054063;28;20466;-63
2022/08/21 07:00:25;;;;;;;7.13;2.13;;;;;;;;;;2052533;28;20034;-63
2022/08/21 07:01:44;;;;;;;8.13;2.38;;;;;;;;;;2053659;28;20034;-62
2022/08/21 07:03:03;;;;;;;3.88;1.75;;;;;;;;;;2055021;28;20054;-63
2022/08/21 07:04:22;;;;;;;5.60;2.35;;;;;;;;;;2056425;28;20035;-63
2022/08/21 07:05:41;;;;;;;8.30;2.20;;;;;;;;;;2056108;28;20038;-63
2022/08/21 07:07:00;;;;;;;6.15;2.03;;;;;;;;;;2056405;28;20027;-63
2022/08/21 07:08:20;;;;;;;6.95;2.10;;;;;;;;;;2054891;28;20035;-63
2022/08/21 07:09:39;;;;;;;4.30;1.73;;;;;;;;;;2056200;28;20065;-63
2022/08/21 07:10:59;;;;;;;10.23;2.28;;;;;;;;;;2055255;28;20034;-63
2022/08/21 07:12:18;;;;;;;9.82;1.88;;;;;;;;;;2056322;28;20511;-63
2022/08/21 07:13:37;;;;;;;10.98;2.53;;;;;;;;;;2054954;28;20471;-63
2022/08/21 07:14:56;;;;;;;12.00;2.08;;;;;;;;;;2055173;28;20026;-63
2022/08/21 07:16:15;;;;;;;7.15;2.15;;;;;;;;;;2056344;28;20141;-63
2022/08/21 07:17:34;;;;;;;6.00;1.52;;;;;;;;;;2055435;28;20106;-63
2022/08/21 07:18:53;;;;;;;6.75;1.77;;;;;;;;;;2055423;28;20058;-64
2022/08/21 07:20:12;;;;;;;5.95;1.70;;;;;;;;;;2053246;28;20035;-63
2022/08/21 07:21:32;;;;;;;5.28;1.63;;;;;;;;;;2054649;28;20034;-63
2022/08/21 07:22:51;;;;;;;8.63;2.15;;;;;;;;;;2056717;28;20109;-63
2022/08/21 07:24:10;;;;;;;8.30;1.90;;;;;;;;;;2055478;28;20087;-63
2022/08/21 07:25:29;;;;;;;10.35;2.30;;;;;;;;;;2050887;28;20043;-63
2022/08/21 07:26:48;;;;;;;5.53;1.85;;;;;;;;;;2056141;28;20038;-64
2022/08/21 07:28:06;;;;;;;5.68;1.95;;;;;;;;;;2055890;28;20113;-63
2022/08/21 07:29:26;;;;;;;10.45;1.95;;;;;;;;;;2053575;28;20322;-63
2022/08/21 07:30:45;;;;;;;8.00;1.98;;;;;;;;;;2053002;28;20030;-64
2022/08/21 07:32:04;;;;;;;7.93;2.00;;;;;;;;;;2054555;28;20054;-64
2022/08/21 07:33:24;;;;;;;7.07;2.00;;;;;;;;;;2054664;28;20487;-64
2022/08/21 07:34:44;;;;;;;7.85;1.83;;;;;;;;;;2055641;28;20023;-63
2022/08/21 07:36:03;;;;;;;12.68;2.67;;;;;;;;;;2052750;28;20498;-63
2022/08/21 07:37:22;;;;;;;7.82;1.95;;;;;;;;;;2056143;28;20475;-64
2022/08/21 07:38:41;;;;;;;6.70;2.17;;;;;;;;;;2055524;28;20031;-64
2022/08/21 07:40:00;;;;;;;6.10;2.00;;;;;;;;;;2055660;28;20511;-67
2022/08/21 07:41:23;;;;;;;6.82;1.85;;;;;;;;;;2055436;28;20038;-64
2022/08/21 07:42:43;;;;;;;5.93;1.92;;;;;;;;;;2054004;28;20395;-66
2022/08/21 07:44:02;;;;;;;5.55;2.15;;;;;;;;;;2054631;28;20034;-64
2022/08/21 07:45:22;;;;;;;6.65;1.90;;;;;;;;;;2053960;28;20035;-64
2022/08/21 07:46:41;;;;;;;7.22;1.63;;;;;;;;;;2053994;28;20035;-64
2022/08/21 07:48:00;;;;;;;7.93;2.20;;;;;;;;;;2053824;28;20062;-64
2022/08/21 07:49:19;;;;;;;5.70;1.95;;;;;;;;;;2054164;28;20115;-62
2022/08/21 07:50:39;;;;;;;5.82;1.98;;;;;;;;;;2053673;28;20050;-62
2022/08/21 07:51:58;;;;;;;8.77;1.80;;;;;;;;;;2053599;28;20034;-63
2022/08/21 07:53:17;;;;;;;5.85;2.30;;;;;;;;;;2054733;28;20023;-63
2022/08/21 07:54:36;;;;;;;8.52;1.92;;;;;;;;;;2053440;28;20054;-63
2022/08/21 07:55:57;;;;;;;3.97;1.83;;;;;;;;;;2053131;28;20031;-63
2022/08/21 07:57:16;;;;;;;4.50;2.00;;;;;;;;;;2054482;28;20034;-63
2022/08/21 07:58:35;;;;;;;7.50;1.88;;;;;;;;;;2053960;28;20031;-62